Roaring River (Missouri), Roaring River State Park (07050152)

StateMissouriCurrentPotential (128 cfs)
RiverRoaring RiverFlood - The river is flooding. Obstacles can be treacherous or deadly. The river should be avoided at this stage for casual trips and definitely for the inexperienced. Trips should be attempted only with protective gear and equipment.Flood(none)
Updated2019-10-14 2:30 (1 hour ago)High - The river is high and potentially dangerous, especially for the young and / or inexperienced. Normal stream obstacles are sometimes difficult to navigate. Extended distances can be attempted, but canoe travel may not be advisable.High(none)
Discharge128 cfs (median: 41 cfs)Good - Conditions are ideal for a canoe or kayak. Boats typically will drag on fewer than one-quarter of riffles, if at all, and portages are unnecessary or rare. Normal float lengths can be attempted without a problem.Good(none)
Height1.12 feetLow - River is low but can still be floated. Some riffles are okay but most come with significant dragging and might need a portage. Float lengths should be reduced to accommodate low flow, dragging, and portages.Low(none)
TrendSteady (falling over 24 hours)Poor - River is too low to float comfortably. Most or all riffles will drag or must be portaged and some obstacles (such as slick shelf rock) cause undue problems. Avoid the river at this stage for casual paddling trips.Poor(none)
USGSExternal icon USGS Site for Roaring River State Park (07050152)LocationExternal icon Google Maps

Trending Data

Plot Image
ObservationHeightDischargeMaximum
Discharge
Minimum
Discharge
Mean
Discharge
P05P10P20P25P50
(Median)
P75P80P90P95
2019-10-14 02:30 1.12 128 155 (2015) 20 (2011) 58 20 22 27 41 74 128 154
2019-10-14 01:30 1.12 128 155 (2015) 20 (2011) 58 20 22 27 41 74 128 154
2019-10-14 00:30 1.12 128 155 (2015) 20 (2011) 58 20 22 27 41 74 128 154
2019-10-13 23:30 1.13 130 454 (2015) 19 (2018) 90 19 21 24 42 81 143 425
2019-10-13 22:30 1.13 130 454 (2015) 19 (2018) 90 19 21 24 42 81 143 425
2019-10-13 21:30 1.14 133 454 (2015) 19 (2018) 90 19 21 24 42 81 143 425
2019-10-13 20:30 1.14 133 454 (2015) 19 (2018) 90 19 21 24 42 81 143 425
2019-10-13 19:30 1.15 136 454 (2015) 19 (2018) 90 19 21 24 42 81 143 425
2019-10-13 18:30 1.15 136 454 (2015) 19 (2018) 90 19 21 24 42 81 143 425
2019-10-13 17:30 1.16 138 454 (2015) 19 (2018) 90 19 21 24 42 81 143 425
2019-10-13 16:30 1.17 141 454 (2015) 19 (2018) 90 19 21 24 42 81 143 425
2019-10-13 15:30 1.17 141 454 (2015) 19 (2018) 90 19 21 24 42 81 143 425
2019-10-13 14:30 1.18 144 454 (2015) 19 (2018) 90 19 21 24 42 81 143 425
2019-10-13 13:30 1.18 144 454 (2015) 19 (2018) 90 19 21 24 42 81 143 425
2019-10-13 12:30 1.18 144 454 (2015) 19 (2018) 90 19 21 24 42 81 143 425
2019-10-13 11:30 1.18 144 454 (2015) 19 (2018) 90 19 21 24 42 81 143 425
2019-10-13 10:30 1.19 146 454 (2015) 19 (2018) 90 19 21 24 42 81 143 425
2019-10-13 09:30 1.19 146 454 (2015) 19 (2018) 90 19 21 24 42 81 143 425
2019-10-13 08:30 1.20 149 454 (2015) 19 (2018) 90 19 21 24 42 81 143 425
2019-10-13 07:30 1.21 152 454 (2015) 19 (2018) 90 19 21 24 42 81 143 425
2019-10-13 06:30 1.21 152 454 (2015) 19 (2018) 90 19 21 24 42 81 143 425
2019-10-13 05:30 1.22 154 454 (2015) 19 (2018) 90 19 21 24 42 81 143 425
2019-10-13 04:30 1.22 154 454 (2015) 19 (2018) 90 19 21 24 42 81 143 425
2019-10-13 03:30 1.23 157 454 (2015) 19 (2018) 90 19 21 24 42 81 143 425
2019-10-13 02:30 1.24 160 454 (2015) 19 (2018) 90 19 21 24 42 81 143 425
2019-10-13 01:30 1.25 163 454 (2015) 19 (2018) 90 19 21 24 42 81 143 425
2019-10-13 00:30 1.25 163 454 (2015) 19 (2018) 90 19 21 24 42 81 143 425
2019-10-12 23:30 1.26 166 195 (2010) 18 (2017) 49 18 20 20 33 51 55 181
2019-10-12 22:30 1.27 169 195 (2010) 18 (2017) 49 18 20 20 33 51 55 181
2019-10-12 21:30 1.27 169 195 (2010) 18 (2017) 49 18 20 20 33 51 55 181
2019-10-12 20:30 1.28 172 195 (2010) 18 (2017) 49 18 20 20 33 51 55 181
2019-10-12 19:30 1.29 174 195 (2010) 18 (2017) 49 18 20 20 33 51 55 181
2019-10-12 18:30 1.30 177 195 (2010) 18 (2017) 49 18 20 20 33 51 55 181
2019-10-12 17:30 1.30 177 195 (2010) 18 (2017) 49 18 20 20 33 51 55 181
2019-10-12 16:30 1.32 183 195 (2010) 18 (2017) 49 18 20 20 33 51 55 181
2019-10-12 15:30 1.32 183 195 (2010) 18 (2017) 49 18 20 20 33 51 55 181
2019-10-12 14:30 1.33 186 195 (2010) 18 (2017) 49 18 20 20 33 51 55 181
2019-10-12 13:30 1.34 189 195 (2010) 18 (2017) 49 18 20 20 33 51 55 181
2019-10-12 12:30 1.35 192 195 (2010) 18 (2017) 49 18 20 20 33 51 55 181
2019-10-12 11:30 1.36 196 195 (2010) 18 (2017) 49 18 20 20 33 51 55 181
2019-10-12 10:30 1.37 199 195 (2010) 18 (2017) 49 18 20 20 33 51 55 181
2019-10-12 09:30 1.38 202 195 (2010) 18 (2017) 49 18 20 20 33 51 55 181
2019-10-12 08:30 1.39 205 195 (2010) 18 (2017) 49 18 20 20 33 51 55 181
2019-10-12 07:30 1.40 208 195 (2010) 18 (2017) 49 18 20 20 33 51 55 181
2019-10-12 06:30 1.42 215 195 (2010) 18 (2017) 49 18 20 20 33 51 55 181
2019-10-12 05:30 1.42 215 195 (2010) 18 (2017) 49 18 20 20 33 51 55 181
2019-10-12 04:30 1.44 221 195 (2010) 18 (2017) 49 18 20 20 33 51 55 181
2019-10-12 03:30 1.45 224 195 (2010) 18 (2017) 49 18 20 20 33 51 55 181
2019-10-12 02:30 1.48 235 195 (2010) 18 (2017) 49 18 20 20 33 51 55 181
2019-10-12 01:30 1.49 238 195 (2010) 18 (2017) 49 18 20 20 33 51 55 181
2019-10-12 00:30 1.51 245 195 (2010) 18 (2017) 49 18 20 20 33 51 55 181
2019-10-11 23:30 1.54 255 235 (2010) 13 (2013) 52 13 17 19 29 59 60 218
2019-10-11 22:30 1.56 262 235 (2010) 13 (2013) 52 13 17 19 29 59 60 218
2019-10-11 21:30 1.59 273 235 (2010) 13 (2013) 52 13 17 19 29 59 60 218
2019-10-11 20:30 1.62 284 235 (2010) 13 (2013) 52 13 17 19 29 59 60 218
2019-10-11 19:30 1.65 296 235 (2010) 13 (2013) 52 13 17 19 29 59 60 218
2019-10-11 18:30 1.69 311 235 (2010) 13 (2013) 52 13 17 19 29 59 60 218
2019-10-11 17:30 1.74 331 235 (2010) 13 (2013) 52 13 17 19 29 59 60 218
2019-10-11 16:30 1.78 347 235 (2010) 13 (2013) 52 13 17 19 29 59 60 218
2019-10-11 15:30 1.84 372 235 (2010) 13 (2013) 52 13 17 19 29 59 60 218
2019-10-11 14:30 1.91 402 235 (2010) 13 (2013) 52 13 17 19 29 59 60 218
2019-10-11 13:30 1.98 433 235 (2010) 13 (2013) 52 13 17 19 29 59 60 218
2019-10-11 12:30 2.08 480 235 (2010) 13 (2013) 52 13 17 19 29 59 60 218
2019-10-11 11:30 2.19 534 235 (2010) 13 (2013) 52 13 17 19 29 59 60 218
2019-10-11 10:30 2.33 607 235 (2010) 13 (2013) 52 13 17 19 29 59 60 218
2019-10-11 09:30 2.51 707 235 (2010) 13 (2013) 52 13 17 19 29 59 60 218
2019-10-11 08:30 2.76 855 235 (2010) 13 (2013) 52 13 17 19 29 59 60 218
2019-10-11 07:30 3.07 1070 235 (2010) 13 (2013) 52 13 17 19 29 59 60 218
2019-10-11 06:30 3.41 1330 235 (2010) 13 (2013) 52 13 17 19 29 59 60 218
2019-10-11 05:30 3.80 1640 235 (2010) 13 (2013) 52 13 17 19 29 59 60 218
2019-10-11 04:30 4.44 2210 235 (2010) 13 (2013) 52 13 17 19 29 59 60 218
2019-10-11 03:30 5.36 3150 235 (2010) 13 (2013) 52 13 17 19 29 59 60 218
2019-10-11 02:30 6.72 4800 235 (2010) 13 (2013) 52 13 17 19 29 59 60 218
2019-10-11 01:30 6.04 3940 235 (2010) 13 (2013) 52 13 17 19 29 59 60 218
2019-10-11 00:30 1.69 299 235 (2010) 13 (2013) 52 13 17 19 29 59 60 218
2019-10-10 23:30 1.06 102 321 (2010) 13 (2013) 59 13 17 19 31 48 58 295
2019-10-10 22:30 0.98 85 321 (2010) 13 (2013) 59 13 17 19 31 48 58 295
2019-10-10 21:30 0.92 72 321 (2010) 13 (2013) 59 13 17 19 31 48 58 295
2019-10-10 20:30 0.91 70 321 (2010) 13 (2013) 59 13 17 19 31 48 58 295
2019-10-10 19:30 0.89 66 321 (2010) 13 (2013) 59 13 17 19 31 48 58 295
2019-10-10 18:30 0.88 65 321 (2010) 13 (2013) 59 13 17 19 31 48 58 295
2019-10-10 17:30 0.89 66 321 (2010) 13 (2013) 59 13 17 19 31 48 58 295
2019-10-10 16:30 0.87 63 321 (2010) 13 (2013) 59 13 17 19 31 48 58 295
2019-10-10 15:30 0.88 65 321 (2010) 13 (2013) 59 13 17 19 31 48 58 295
2019-10-10 14:30 0.87 63 321 (2010) 13 (2013) 59 13 17 19 31 48 58 295
2019-10-10 13:30 0.88 65 321 (2010) 13 (2013) 59 13 17 19 31 48 58 295
2019-10-10 12:30 0.88 65 321 (2010) 13 (2013) 59 13 17 19 31 48 58 295
2019-10-10 11:30 0.88 65 321 (2010) 13 (2013) 59 13 17 19 31 48 58 295
2019-10-10 10:30 0.88 65 321 (2010) 13 (2013) 59 13 17 19 31 48 58 295
2019-10-10 09:30 0.88 65 321 (2010) 13 (2013) 59 13 17 19 31 48 58 295
2019-10-10 08:30 0.88 65 321 (2010) 13 (2013) 59 13 17 19 31 48 58 295
2019-10-10 07:30 0.88 65 321 (2010) 13 (2013) 59 13 17 19 31 48 58 295
2019-10-10 06:30 0.89 66 321 (2010) 13 (2013) 59 13 17 19 31 48 58 295
2019-10-10 05:30 0.89 66 321 (2010) 13 (2013) 59 13 17 19 31 48 58 295
2019-10-10 04:30 0.89 66 321 (2010) 13 (2013) 59 13 17 19 31 48 58 295
2019-10-10 03:30 0.89 66 321 (2010) 13 (2013) 59 13 17 19 31 48 58 295
2019-10-10 02:30 0.90 68 321 (2010) 13 (2013) 59 13 17 19 31 48 58 295
2019-10-10 01:30 0.90 68 321 (2010) 13 (2013) 59 13 17 19 31 48 58 295
2019-10-10 00:30 0.90 68 321 (2010) 13 (2013) 59 13 17 19 31 48 58 295
2019-10-09 23:30 0.90 68 1220 (2010) 13 (2013) 147 13 17 17 24 45 58 1100
2019-10-09 22:30 0.91 70 1220 (2010) 13 (2013) 147 13 17 17 24 45 58 1100
2019-10-09 21:30 0.91 70 1220 (2010) 13 (2013) 147 13 17 17 24 45 58 1100
2019-10-09 20:30 0.91 70 1220 (2010) 13 (2013) 147 13 17 17 24 45 58 1100
2019-10-09 19:30 0.91 70 1220 (2010) 13 (2013) 147 13 17 17 24 45 58 1100
2019-10-09 18:30 0.92 72 1220 (2010) 13 (2013) 147 13 17 17 24 45 58 1100
2019-10-09 17:30 0.92 72 1220 (2010) 13 (2013) 147 13 17 17 24 45 58 1100
2019-10-09 16:30 0.92 72 1220 (2010) 13 (2013) 147 13 17 17 24 45 58 1100
2019-10-09 15:30 0.93 74 1220 (2010) 13 (2013) 147 13 17 17 24 45 58 1100
2019-10-09 14:30 0.93 74 1220 (2010) 13 (2013) 147 13 17 17 24 45 58 1100
2019-10-09 13:30 0.93 74 1220 (2010) 13 (2013) 147 13 17 17 24 45 58 1100
2019-10-09 12:30 0.93 74 1220 (2010) 13 (2013) 147 13 17 17 24 45 58 1100
2019-10-09 11:30 0.93 74 1220 (2010) 13 (2013) 147 13 17 17 24 45 58 1100
2019-10-09 10:30 0.93 74 1220 (2010) 13 (2013) 147 13 17 17 24 45 58 1100
2019-10-09 09:30 0.94 76 1220 (2010) 13 (2013) 147 13 17 17 24 45 58 1100
2019-10-09 08:30 0.94 76 1220 (2010) 13 (2013) 147 13 17 17 24 45 58 1100
2019-10-09 07:30 0.94 76 1220 (2010) 13 (2013) 147 13 17 17 24 45 58 1100
2019-10-09 06:30 0.94 76 1220 (2010) 13 (2013) 147 13 17 17 24 45 58 1100
2019-10-09 05:30 0.94 76 1220 (2010) 13 (2013) 147 13 17 17 24 45 58 1100
2019-10-09 04:30 0.95 78 1220 (2010) 13 (2013) 147 13 17 17 24 45 58 1100
2019-10-09 03:30 0.95 78 1220 (2010) 13 (2013) 147 13 17 17 24 45 58 1100
2019-10-09 02:30 0.95 78 1220 (2010) 13 (2013) 147 13 17 17 24 45 58 1100
2019-10-09 01:30 0.96 80 1220 (2010) 13 (2013) 147 13 17 17 24 45 58 1100
2019-10-09 00:30 0.96 80 1220 (2010) 13 (2013) 147 13 17 17 24 45 58 1100
2019-10-08 23:30 0.96 80 308 (2010) 12 (2013) 57 12 16 17 26 49 61 284
2019-10-08 22:30 0.96 80 308 (2010) 12 (2013) 57 12 16 17 26 49 61 284
2019-10-08 21:30 0.97 82 308 (2010) 12 (2013) 57 12 16 17 26 49 61 284
2019-10-08 20:30 0.97 82 308 (2010) 12 (2013) 57 12 16 17 26 49 61 284
2019-10-08 19:30 0.97 82 308 (2010) 12 (2013) 57 12 16 17 26 49 61 284
2019-10-08 18:30 0.98 85 308 (2010) 12 (2013) 57 12 16 17 26 49 61 284
2019-10-08 17:30 0.98 85 308 (2010) 12 (2013) 57 12 16 17 26 49 61 284
2019-10-08 16:30 0.98 85 308 (2010) 12 (2013) 57 12 16 17 26 49 61 284
2019-10-08 15:30 0.99 87 308 (2010) 12 (2013) 57 12 16 17 26 49 61 284
2019-10-08 14:30 0.98 85 308 (2010) 12 (2013) 57 12 16 17 26 49 61 284
2019-10-08 13:30 0.99 87 308 (2010) 12 (2013) 57 12 16 17 26 49 61 284
2019-10-08 12:30 0.99 87 308 (2010) 12 (2013) 57 12 16 17 26 49 61 284
2019-10-08 11:30 0.99 87 308 (2010) 12 (2013) 57 12 16 17 26 49 61 284
2019-10-08 10:30 0.99 87 308 (2010) 12 (2013) 57 12 16 17 26 49 61 284
2019-10-08 09:30 0.99 87 308 (2010) 12 (2013) 57 12 16 17 26 49 61 284
2019-10-08 08:30 0.99 87 308 (2010) 12 (2013) 57 12 16 17 26 49 61 284
2019-10-08 07:30 1.00 89 308 (2010) 12 (2013) 57 12 16 17 26 49 61 284
2019-10-08 06:30 1.00 89 308 (2010) 12 (2013) 57 12 16 17 26 49 61 284
2019-10-08 05:30 1.00 89 308 (2010) 12 (2013) 57 12 16 17 26 49 61 284
2019-10-08 04:30 1.01 91 308 (2010) 12 (2013) 57 12 16 17 26 49 61 284
2019-10-08 03:30 1.01 91 308 (2010) 12 (2013) 57 12 16 17 26 49 61 284
2019-10-08 02:30 1.02 93 308 (2010) 12 (2013) 57 12 16 17 26 49 61 284
2019-10-08 01:30 1.02 93 308 (2010) 12 (2013) 57 12 16 17 26 49 61 284
2019-10-08 00:30 1.03 95 308 (2010) 12 (2013) 57 12 16 17 26 49 61 284
2019-10-07 23:30 1.03 95 66 (2009) 12 (2013) 31 12 16 17 26 40 47 64
2019-10-07 22:30 1.04 98 66 (2009) 12 (2013) 31 12 16 17 26 40 47 64
2019-10-07 21:30 1.04 98 66 (2009) 12 (2013) 31 12 16 17 26 40 47 64
2019-10-07 20:30 1.05 100 66 (2009) 12 (2013) 31 12 16 17 26 40 47 64
2019-10-07 19:30 1.05 100 66 (2009) 12 (2013) 31 12 16 17 26 40 47 64
2019-10-07 18:30 1.06 102 66 (2009) 12 (2013) 31 12 16 17 26 40 47 64
2019-10-07 17:30 1.07 105 66 (2009) 12 (2013) 31 12 16 17 26 40 47 64
2019-10-07 16:30 1.08 107 66 (2009) 12 (2013) 31 12 16 17 26 40 47 64
2019-10-07 15:30 1.09 109 66 (2009) 12 (2013) 31 12 16 17 26 40 47 64
2019-10-07 14:30 1.10 112 66 (2009) 12 (2013) 31 12 16 17 26 40 47 64
2019-10-07 13:30 1.11 114 66 (2009) 12 (2013) 31 12 16 17 26 40 47 64
2019-10-07 12:30 1.12 117 66 (2009) 12 (2013) 31 12 16 17 26 40 47 64
2019-10-07 11:30 1.13 119 66 (2009) 12 (2013) 31 12 16 17 26 40 47 64
2019-10-07 10:30 1.14 122 66 (2009) 12 (2013) 31 12 16 17 26 40 47 64
2019-10-07 09:30 1.15 124 66 (2009) 12 (2013) 31 12 16 17 26 40 47 64
2019-10-07 08:30 1.16 127 66 (2009) 12 (2013) 31 12 16 17 26 40 47 64
2019-10-07 07:30 1.19 135 66 (2009) 12 (2013) 31 12 16 17 26 40 47 64
2019-10-07 06:30 1.21 140 66 (2009) 12 (2013) 31 12 16 17 26 40 47 64
2019-10-07 05:30 1.23 146 66 (2009) 12 (2013) 31 12 16 17 26 40 47 64
2019-10-07 04:30 1.26 154 66 (2009) 12 (2013) 31 12 16 17 26 40 47 64
2019-10-07 03:30 1.29 163 66 (2009) 12 (2013) 31 12 16 17 26 40 47 64
2019-10-07 02:30 1.32 171 66 (2009) 12 (2013) 31 12 16 17 26 40 47 64
2019-10-07 01:30 1.35 180 66 (2009) 12 (2013) 31 12 16 17 26 40 47 64
2019-10-07 00:30 1.40 196 66 (2009) 12 (2013) 31 12 16 17 26 40 47 64

A total of 171 rows are displayed for years 2009 through 2018.

Trips for Roaring River (Missouri), Roaring River State Park (07050152)

DateStartEndDistanceConditionDischargeHeightFishingDetails

A total of 0 rows are displayed.

Condition Descriptions

Fishing Conditions

Fish Species

Notes

Classic Trip List

The classic River Trips application is still available for use. It is updated with the new system using a data retrofit. It is no longer maintained. The original River Trips application is no longer updated (as of 1 Dec 2016) but can be checked for errors or for the condition of the data before it was converted to the new system.